Markesan, WI (53946)

1:29 AM CDT on May 07, 2015 (GMT -0500)
Brooks Southside addition | | Change Station
CLOSE
Current Station
Personal Weather Station
Location: Green Lake, WI
Elevation: 823 ft
Nearby Weather Stations

Elev 823 ft 43.84 °N, 88.95 °W | Updated 9 minutes ago

Clear
Clear
58.0 °F
Feels Like 58.0 °F
N
0.0
Wind Variable Wind from ENE
Gusts 1.0 mph

Today
High -- | Low -- °F
--% Chance of Precip.
Yesterday
High -- | Low -- °F
Precip. -- in
5:40 AM 8:05 PM
Waning Gibbous, 90% visible
Pressure 30.06 in
Visibility 2.5 miles
Clouds Clear
Dew Point 54 °F
Humidity 87%
Rainfall 0.00 in
Snow Depth Not available.
UV 0 out of 12
Pollen 10.20 out of 12
Air Quality Not available.
Flu Activity Local Activity
METAR KUNU 070615Z AUTO 18004KT 2 1/2SM BR CLR 13/12 A3006 RMK AO2 T01260116

More Conditions Fewer Conditions

Pressure 30.06 in
Visibility 2.5 miles
Clouds Clear
Dew Point 54 °F
Humidity 87%
Rainfall 0.00 in
Snow Depth Not available.
UV 0 out of 12
Pollen 10.20 out of 12
Air Quality Not available.
Flu Activity Local Activity
METAR KUNU 070615Z AUTO 18004KT 2 1/2SM BR CLR 13/12 A3006 RMK AO2 T01260116

More Conditions Fewer Conditions

10-Day Weather Forecast

Almanac

Astronomy

May. 07, 2015 Rise Set
Actual Time
Civil Twilight
Nautical Twilight
Astronomical Twilight
Moon
Length of Visible Light
Length of Day
Tomorrow will be .
, % of the Moon is Illuminated

Today's Extremes

State Highs State Lows

Community

WunderPhotos

Upload Photos

1,819,126 photos uploaded!

WunderBlogs® & News

Nearby

Air Quality

  Air Quality AQ Index Pollutant
Not available.

Snow Depth

Station Depth Elevation

Earthquake Activity

City Distance Mag. Time & Date
Minimum magnitude displayed is 2.5.

Coastal Water Temperatures

Place Temperature

Stations

Nearby Weather Stations

Station Location Temp. Windchill Dew Point Humidity Wind Precip. Elev Updated Type